This is the latest recevied weather packets stored in our database for station/object K6GMW. If no packets are shown the sender has not sent any weather packets the latest 10 day(s).
| Time | Temp. | Humidity | Pressure | Rain* | Wind** | Luminosity | Snow |
|---|---|---|---|---|---|---|---|
| 1778192915 | 21.11° C | 62% | 1016.7 hPa | 0 mm | - | 272 W/m² | - |
| 1778192612 | 21.11° C | 59% | 1016.9 hPa | 0 mm | - | 250 W/m² | - |
| 1778192309 | 21.67° C | 60% | 1016.7 hPa | 0 mm | - | 256 W/m² | - |
| 1778192005 | 21.67° C | 60% | 1016.8 hPa | 0 mm | - | 287 W/m² | - |
| 1778191701 | 21.67° C | 60% | 1016.7 hPa | 0 mm | - | 317 W/m² | - |
| 1778191400 | 21.67° C | 59% | 1016.8 hPa | 0 mm | - | 388 W/m² | - |
| 1778191096 | 21.67° C | 61% | 1017 hPa | 0 mm | - | 349 W/m² | - |
| 1778190793 | 22.22° C | 58% | 1016.6 hPa | 0 mm | - | 317 W/m² | - |
| 1778190490 | 22.22° C | 59% | 1016.8 hPa | 0 mm | - | 281 W/m² | - |
| 1778190188 | 21.67° C | 60% | 1016.8 hPa | 0 mm | - | 302 W/m² | - |
| 1778189882 | 22.22° C | 60% | 1016.8 hPa | 0 mm | - | 274 W/m² | - |
| 1778189580 | 22.22° C | 58% | 1016.7 hPa | 0 mm | - | 296 W/m² | - |
| 1778189276 | 21.67° C | 62% | 1016.5 hPa | 0 mm | - | 314 W/m² | - |
| 1778188973 | 22.22° C | 57% | 1016.6 hPa | 0 mm | - | 366 W/m² | - |
| 1778188669 | 22.22° C | 58% | 1016.7 hPa | 0 mm | - | 332 W/m² | - |
| 1778188365 | 22.22° C | 56% | 1016.8 hPa | 0 mm | - | 345 W/m² | - |
| 1778188063 | 22.78° C | 56% | 1016.8 hPa | 0 mm | - | 513 W/m² | - |
| 1778187760 | 22.78° C | 57% | 1016.9 hPa | 0 mm | - | 494 W/m² | - |
| 1778187456 | 22.78° C | 56% | 1017.3 hPa | 0 mm | - | 648 W/m² | - |
| 1778187153 | 21.67° C | 60% | 1017.2 hPa | 0 mm | - | 576 W/m² | - |
| 1778186849 | 22.22° C | 55% | 1017.2 hPa | 0 mm | - | 479 W/m² | - |
| 1778186547 | 22.78° C | 55% | 1017.3 hPa | 0 mm | - | 831 W/m² | - |
| 1778186245 | 22.22° C | 56% | 1017.3 hPa | 0 mm | - | 859 W/m² | - |
| 1778185942 | 22.22° C | 61% | 1017.3 hPa | 0 mm | - | 636 W/m² | - |
| 1778185638 | 22.22° C | 56% | 1017.3 hPa | 0 mm | - | 513 W/m² | - |
* Rain latest hour (hover to see other rain measurements)
** Current wind speed in m/s (hover to see current wind gust speed)